Time;durP1;ratioP1;P1;durP2;ratioP2;P2;SDS_P1;SDS_P2;PMS_P1;PMS_P2;Temp;Humidity;BMP_temperature;BMP_pressure;BME280_temperature;BME280_humidity;BME280_pressure;Samples;Min_cycle;Max_cycle;Signal;HPM_P1;HPM_P2
2023/07/01 00:01:17;;;;;;;4.73;3.90;;;;;;;17.08;100.00;100593.47;5033605;28;21018;-43
2023/07/01 00:03:45;;;;;;;4.10;3.80;;;;;;;17.07;100.00;100597.25;5033805;28;20432;-43
2023/07/01 00:06:14;;;;;;;3.73;3.43;;;;;;;17.08;100.00;100592.69;5033619;28;20973;-44
2023/07/01 00:08:41;;;;;;;4.40;3.97;;;;;;;17.07;100.00;100585.66;5033334;28;20946;-41
2023/07/01 00:11:09;;;;;;;3.53;3.33;;;;;;;17.09;100.00;100584.34;5033442;28;20506;-43
2023/07/01 00:13:38;;;;;;;8.10;3.30;;;;;;;17.07;100.00;100577.56;5033157;28;20472;-42
2023/07/01 00:16:06;;;;;;;3.30;3.10;;;;;;;17.08;100.00;100588.09;5033573;28;20505;-44
2023/07/01 00:18:34;;;;;;;4.07;3.60;;;;;;;17.10;100.00;100572.53;5033211;28;20845;-41
2023/07/01 00:21:01;;;;;;;4.00;3.70;;;;;;;17.08;100.00;100558.47;5033189;28;20452;-41
2023/07/01 00:23:29;;;;;;;3.50;3.30;;;;;;;17.12;100.00;100558.78;5024958;28;20802;-41
2023/07/01 00:25:57;;;;;;;4.47;3.80;;;;;;;17.12;100.00;100556.09;5033062;28;20926;-41
2023/07/01 00:28:25;;;;;;;3.70;3.40;;;;;;;17.14;100.00;100556.69;5032695;28;20436;-46
2023/07/01 00:30:54;;;;;;;3.97;3.67;;;;;;;17.12;100.00;100554.22;5033010;28;20970;-43
2023/07/01 00:33:22;;;;;;;3.50;3.20;;;;;;;17.09;100.00;100548.50;5032282;28;20498;-44
2023/07/01 00:35:49;;;;;;;5.13;4.73;;;;;;;17.07;100.00;100551.44;5033090;28;20486;-42
2023/07/01 00:38:17;;;;;;;4.23;3.93;;;;;;;17.04;100.00;100554.63;5032984;28;20510;-46
2023/07/01 00:40:45;;;;;;;4.67;4.37;;;;;;;17.02;100.00;100548.66;5032410;28;20472;-42
2023/07/01 00:43:14;;;;;;;6.57;4.77;;;;;;;16.99;100.00;100556.44;5032764;28;20447;-42
2023/07/01 00:45:43;;;;;;;4.73;4.40;;;;;;;16.95;100.00;100549.88;5032986;28;20467;-42
2023/07/01 00:48:23;;;;;;;4.50;4.30;;;;;;;16.95;100.00;100555.28;5032926;28;20502;-44
2023/07/01 00:50:51;;;;;;;5.07;4.70;;;;;;;16.92;100.00;100551.19;5032471;28;20535;-44
2023/07/01 00:53:20;;;;;;;6.10;4.90;;;;;;;16.92;100.00;100543.09;5032486;28;20428;-45
2023/07/01 00:55:47;;;;;;;5.47;5.07;;;;;;;16.90;100.00;100556.00;5032747;28;20479;-42
2023/07/01 00:58:15;;;;;;;4.87;4.57;;;;;;;16.89;100.00;100548.16;5032676;28;20459;-41
2023/07/01 01:00:43;;;;;;;5.20;4.90;;;;;;;16.85;100.00;100533.53;5032184;28;20491;-47
2023/07/01 01:03:22;;;;;;;5.53;5.13;;;;;;;16.80;100.00;100528.06;5032376;28;20460;-42
2023/07/01 01:05:56;;;;;;;5.73;5.33;;;;;;;16.75;100.00;100525.28;5032481;28;20435;-41
2023/07/01 01:08:29;;;;;;;5.73;5.40;;;;;;;16.74;100.00;100526.34;5032298;28;20436;-44
2023/07/01 01:11:00;;;;;;;6.80;6.30;;;;;;;16.74;100.00;100512.88;5032383;28;20448;-41
2023/07/01 01:13:29;;;;;;;6.83;6.13;;;;;;;16.70;100.00;100512.53;5032140;28;21000;-43
2023/07/01 01:15:58;;;;;;;6.00;5.60;;;;;;;16.68;100.00;100511.16;5032181;28;20479;-43
2023/07/01 01:18:30;;;;;;;5.33;5.03;;;;;;;16.66;100.00;100505.19;5031998;28;20463;-43
2023/07/01 01:20:59;;;;;;;5.93;5.60;;;;;;;16.68;100.00;100495.00;5025789;28;20822;-41
2023/07/01 01:23:33;;;;;;;5.87;5.43;;;;;;;16.70;100.00;100491.00;5023804;28;20482;-42
2023/07/01 01:26:06;;;;;;;5.50;5.10;;;;;;;16.71;100.00;100497.19;5032157;28;20463;-42
2023/07/01 01:28:36;;;;;;;8.00;5.60;;;;;;;16.72;100.00;100490.75;5031644;28;20502;-41
2023/07/01 01:31:04;;;;;;;5.80;5.60;;;;;;;16.74;100.00;100485.94;5032365;28;20444;-44
2023/07/01 01:33:33;;;;;;;7.07;6.33;;;;;;;16.73;100.00;100484.31;5031861;28;20440;-42
2023/07/01 01:36:07;;;;;;;6.17;5.80;;;;;;;16.74;100.00;100484.06;5032036;28;20476;-41
2023/07/01 01:38:37;;;;;;;8.23;6.13;;;;;;;16.74;100.00;100481.38;5031552;28;20432;-41
2023/07/01 01:41:12;;;;;;;5.70;5.40;;;;;;;16.75;100.00;100469.56;5031751;28;20452;-44
2023/07/01 01:43:47;;;;;;;6.57;6.17;;;;;;;16.76;100.00;100476.56;5031363;28;20435;-44
2023/07/01 01:46:16;;;;;;;5.97;5.57;;;;;;;16.76;100.00;100470.34;5031635;28;20458;-45
2023/07/01 01:48:44;;;;;;;6.33;5.87;;;;;;;16.77;100.00;100467.44;5031374;28;20998;-42
2023/07/01 01:51:14;;;;;;;8.10;6.30;;;;;;;16.79;100.00;100465.31;5031711;28;20826;-44
2023/07/01 01:53:43;;;;;;;5.80;5.40;;;;;;;16.80;100.00;100456.16;5031721;28;20439;-41
2023/07/01 01:56:12;;;;;;;6.63;6.10;;;;;;;16.82;100.00;100458.59;5031707;28;20472;-45
2023/07/01 01:58:42;;;;;;;6.20;5.90;;;;;;;16.82;100.00;100456.72;5031405;28;20482;-42
2023/07/01 02:01:09;;;;;;;8.73;6.80;;;;;;;16.84;100.00;100459.19;5031512;28;21031;-41
2023/07/01 02:03:37;;;;;;;6.50;6.10;;;;;;;16.83;100.00;100449.47;5031521;28;20468;-45
2023/07/01 02:06:05;;;;;;;6.97;6.63;;;;;;;16.83;100.00;100446.78;5031530;28;20440;-44
2023/07/01 02:08:33;;;;;;;6.57;6.03;;;;;;;16.80;100.00;100442.72;5031176;28;20439;-44
2023/07/01 02:11:00;;;;;;;5.67;5.37;;;;;;;16.79;100.00;100430.28;5031694;28;20495;-42
2023/07/01 02:13:28;;;;;;;6.80;6.10;;;;;;;16.81;100.00;100436.28;5031383;28;20514;-44
2023/07/01 02:15:57;;;;;;;6.70;6.20;;;;;;;16.81;100.00;100424.69;5031585;28;20506;-42
2023/07/01 02:18:25;;;;;;;7.20;6.70;;;;;;;16.80;100.00;100418.47;5031047;28;20482;-43
2023/07/01 02:20:53;;;;;;;8.23;7.50;;;;;;;16.79;100.00;100424.09;5031659;28;20500;-43
2023/07/01 02:23:21;;;;;;;9.97;7.13;;;;;;;16.75;100.00;100415.72;5031221;28;20431;-49
2023/07/01 02:25:48;;;;;;;7.10;6.70;;;;;;;16.72;100.00;100416.19;5031476;28;20428;-43
2023/07/01 02:28:16;;;;;;;7.27;6.73;;;;;;;16.71;100.00;100413.72;5031306;28;20509;-42
2023/07/01 02:30:44;;;;;;;8.73;7.90;;;;;;;16.66;100.00;100411.78;5030849;28;20472;-41
2023/07/01 02:33:13;;;;;;;9.50;8.03;;;;;;;16.59;100.00;100406.56;5031323;28;20439;-42
2023/07/01 02:35:41;;;;;;;8.20;7.67;;;;;;;16.58;100.00;100404.09;5031529;28;20503;-41
2023/07/01 02:38:09;;;;;;;8.57;7.87;;;;;;;16.56;100.00;100398.97;5031518;28;20435;-43
2023/07/01 02:40:37;;;;;;;9.33;8.73;;;;;;;16.53;100.00;100393.22;5030852;28;20846;-42
2023/07/01 02:43:04;;;;;;;8.77;8.13;;;;;;;16.52;100.00;100396.97;5031221;28;20468;-44
2023/07/01 02:45:32;;;;;;;8.97;8.17;;;;;;;16.50;100.00;100394.53;5031307;28;20432;-42
2023/07/01 02:48:00;;;;;;;9.43;8.77;;;;;;;16.48;100.00;100390.44;5031148;28;20435;-43
2023/07/01 02:50:29;;;;;;;8.83;8.33;;;;;;;16.46;100.00;100385.28;5030783;28;20466;-42
2023/07/01 02:52:57;;;;;;;9.50;8.80;;;;;;;16.45;100.00;100386.38;5031148;28;20498;-44
2023/07/01 02:55:29;;;;;;;9.20;8.70;;;;;;;16.45;100.00;100382.84;5031733;28;20471;-45
2023/07/01 02:57:57;;;;;;;9.60;9.00;;;;;;;16.43;100.00;100387.66;5034969;28;20869;-41
2023/07/01 03:00:25;;;;;;;9.60;8.70;;;;;;;16.40;100.00;100377.38;5034354;28;20464;-42
2023/07/01 03:02:53;;;;;;;9.70;9.10;;;;;;;16.40;100.00;100378.19;5034797;28;20497;-44
2023/07/01 03:05:23;;;;;;;8.80;8.20;;;;;;;16.39;100.00;100384.66;5034878;28;20434;-46
2023/07/01 03:07:52;;;;;;;12.00;9.73;;;;;;;16.39;100.00;100373.06;5034826;28;20440;-44
2023/07/01 03:10:20;;;;;;;9.63;8.90;;;;;;;16.38;100.00;100380.31;5034177;28;20495;-47
2023/07/01 03:12:48;;;;;;;9.67;9.07;;;;;;;16.37;100.00;100369.78;5034701;28;20494;-44
2023/07/01 03:15:15;;;;;;;11.30;10.50;;;;;;;16.35;100.00;100364.66;5034757;28;20482;-40
2023/07/01 03:17:43;;;;;;;11.30;10.20;;;;;;;16.35;100.00;100361.16;5034693;28;20966;-41
2023/07/01 03:20:22;;;;;;;10.07;9.37;;;;;;;16.34;100.00;100343.34;5032418;28;20472;-47
2023/07/01 03:22:52;;;;;;;11.57;10.67;;;;;;;16.31;100.00;100344.66;5023046;28;20942;-42
2023/07/01 03:25:20;;;;;;;11.73;10.77;;;;;;;16.33;100.00;100339.06;5034239;28;20966;-47
2023/07/01 03:27:48;;;;;;;9.97;9.30;;;;;;;16.32;100.00;100342.78;5034337;28;20486;-44
2023/07/01 03:30:18;;;;;;;27.40;11.23;;;;;;;16.31;100.00;100343.84;5033829;28;20464;-41
2023/07/01 03:32:48;;;;;;;11.47;10.77;;;;;;;16.31;100.00;100333.91;5034113;28;20798;-43
2023/07/01 03:35:16;;;;;;;11.50;10.83;;;;;;;16.31;100.00;100330.38;5034199;28;20476;-45
2023/07/01 03:37:45;;;;;;;12.67;11.87;;;;;;;16.29;100.00;100327.97;5034106;28;20855;-43
2023/07/01 03:40:14;;;;;;;11.90;11.10;;;;;;;16.25;100.00;100334.88;5033686;28;20491;-42
2023/07/01 03:42:43;;;;;;;12.10;11.20;;;;;;;16.26;100.00;100333.00;5034093;28;20490;-43
2023/07/01 03:45:12;;;;;;;13.47;12.37;;;;;;;16.25;100.00;100324.13;5034201;28;20432;-43
2023/07/01 03:47:42;;;;;;;11.83;11.03;;;;;;;16.24;100.00;100327.06;5034123;28;20511;-43
2023/07/01 03:50:11;;;;;;;12.47;11.53;;;;;;;16.25;100.00;100328.66;5033361;28;20468;-42
2023/07/01 03:52:40;;;;;;;12.40;11.73;;;;;;;16.25;100.00;100324.13;5033946;28;20436;-43
2023/07/01 03:55:11;;;;;;;11.13;10.53;;;;;;;16.29;100.00;100327.13;5033976;28;20475;-44
2023/07/01 03:57:40;;;;;;;11.83;11.03;;;;;;;16.29;100.00;100313.69;5033984;28;20423;-42
2023/07/01 04:00:15;;;;;;;13.20;12.00;;;;;;;16.34;100.00;100311.06;5033334;28;20530;-45
2023/07/01 04:02:43;;;;;;;13.90;12.03;;;;;;;16.37;100.00;100306.03;5033491;28;20428;-41
2023/07/01 04:05:11;;;;;;;12.67;11.87;;;;;;;16.38;100.00;100298.75;5033934;28;20428;-41
2023/07/01 04:07:40;;;;;;;13.50;12.30;;;;;;;16.40;100.00;100293.94;5032897;28;20436;-42
2023/07/01 04:10:09;;;;;;;14.27;13.03;;;;;;;16.41;100.00;100298.28;5033177;28;20530;-42
2023/07/01 04:12:37;;;;;;;14.10;12.80;;;;;;;16.44;100.00;100279.78;5033477;28;20519;-46
2023/07/01 04:15:09;;;;;;;13.13;12.33;;;;;;;16.51;100.00;100296.56;5033433;28;20479;-44
2023/07/01 04:17:40;;;;;;;12.53;11.70;;;;;;;16.52;100.00;100282.03;5033698;28;20476;-41
2023/07/01 04:20:10;;;;;;;12.70;11.80;;;;;;;16.55;100.00;100284.25;5032914;28;21001;-43
2023/07/01 04:22:38;;;;;;;12.93;12.17;;;;;;;16.61;100.00;100289.75;5033293;28;20553;-47
2023/07/01 04:25:07;;;;;;;12.13;11.20;;;;;;;16.66;100.00;100292.50;5033542;28;20519;-45
2023/07/01 04:27:35;;;;;;;12.93;12.10;;;;;;;16.68;100.00;100291.19;5033151;28;20494;-43
2023/07/01 04:30:04;;;;;;;12.17;11.40;;;;;;;16.72;100.00;100275.38;5032903;28;20884;-44
2023/07/01 04:32:33;;;;;;;12.67;11.70;;;;;;;16.74;100.00;100278.63;5033127;28;20798;-44
2023/07/01 04:35:01;;;;;;;12.90;12.20;;;;;;;16.74;100.00;100279.44;5032903;28;20432;-42
2023/07/01 04:37:29;;;;;;;13.53;12.50;;;;;;;16.77;100.00;100284.31;5033114;28;20888;-50
2023/07/01 04:39:57;;;;;;;13.13;12.33;;;;;;;16.77;100.00;100276.25;5032517;28;20530;-43
2023/07/01 04:42:24;;;;;;;13.93;13.03;;;;;;;16.78;100.00;100275.19;5033050;28;20432;-43
2023/07/01 04:44:54;;;;;;;13.37;12.40;;;;;;;16.82;100.00;100267.41;5033097;28;20432;-43
2023/07/01 04:47:22;;;;;;;13.17;12.23;;;;;;;16.83;100.00;100272.56;5032981;28;20460;-42
2023/07/01 04:49:53;;;;;;;11.60;10.77;;;;;;;16.86;100.00;100274.75;5032354;28;20468;-45
2023/07/01 04:52:21;;;;;;;14.27;13.27;;;;;;;16.83;100.00;100267.16;5032636;28;20436;-48
2023/07/01 04:54:49;;;;;;;13.80;12.57;;;;;;;16.84;100.00;100266.13;5032613;28;20527;-46
2023/07/01 04:57:17;;;;;;;14.23;12.97;;;;;;;16.86;100.00;100266.69;5032858;28;20471;-43
2023/07/01 04:59:45;;;;;;;13.67;12.77;;;;;;;16.88;100.00;100253.75;5032093;28;20518;-45
2023/07/01 05:02:13;;;;;;;13.30;12.50;;;;;;;16.88;100.00;100247.56;5032411;28;20440;-44
2023/07/01 05:04:41;;;;;;;14.17;12.97;;;;;;;16.85;100.00;100248.88;5032646;28;20926;-47
2023/07/01 05:07:10;;;;;;;15.83;14.53;;;;;;;16.84;100.00;100247.25;5032442;28;20428;-43
2023/07/01 05:09:38;;;;;;;15.30;14.10;;;;;;;16.87;100.00;100241.38;5031971;28;20993;-44
2023/07/01 05:12:06;;;;;;;15.30;14.10;;;;;;;16.90;100.00;100237.38;5032339;28;20431;-41
2023/07/01 05:14:34;;;;;;;14.47;13.50;;;;;;;16.95;100.00;100227.47;5032459;28;20432;-45
2023/07/01 05:17:02;;;;;;;15.33;14.03;;;;;;;16.99;100.00;100230.47;5032553;28;20499;-42
2023/07/01 05:19:29;;;;;;;15.20;14.10;;;;;;;16.94;100.00;100236.59;5031673;28;20509;-42
2023/07/01 05:21:57;;;;;;;15.77;14.37;;;;;;;16.95;100.00;100223.97;5023996;28;20498;-43
2023/07/01 05:24:26;;;;;;;15.30;14.20;;;;;;;16.98;100.00;100237.75;5025772;28;20486;-42
2023/07/01 05:26:54;;;;;;;15.57;14.40;;;;;;;16.98;100.00;100234.22;5032273;28;20443;-48
2023/07/01 05:29:22;;;;;;;14.60;13.63;;;;;;;17.02;100.00;100225.38;5031303;28;20528;-46
2023/07/01 05:31:50;;;;;;;16.37;15.00;;;;;;;17.02;100.00;100232.69;5009376;28;20441;-42
2023/07/01 05:34:18;;;;;;;16.40;15.07;;;;;;;16.97;100.00;100224.50;5012410;28;20803;-48
2023/07/01 05:36:45;;;;;;;16.43;15.03;;;;;;;16.97;100.00;100224.50;5028154;28;20483;-41
2023/07/01 05:39:13;;;;;;;15.50;14.40;;;;;;;16.90;100.00;100226.59;5031622;28;20460;-42
2023/07/01 05:41:43;;;;;;;16.13;15.00;;;;;;;16.93;100.00;100228.78;5028791;28;20432;-43
2023/07/01 05:44:11;;;;;;;15.90;14.80;;;;;;;16.99;100.00;100223.19;5022986;28;20435;-45
2023/07/01 05:46:40;;;;;;;16.03;14.93;;;;;;;17.05;100.00;100216.00;5031827;28;20478;-42
2023/07/01 05:49:08;;;;;;;16.40;15.23;;;;;;;17.04;100.00;100223.28;5031139;28;20463;-43
2023/07/01 05:51:38;;;;;;;15.40;14.40;;;;;;;17.07;100.00;100224.66;5031591;28;20459;-41
2023/07/01 05:54:05;;;;;;;15.27;14.33;;;;;;;17.06;100.00;100223.00;5031702;28;20995;-42
2023/07/01 05:56:33;;;;;;;16.40;15.50;;;;;;;16.98;100.00;100213.50;5031981;28;20471;-42
2023/07/01 05:59:02;;;;;;;15.37;14.53;;;;;;;16.86;100.00;100212.81;5030867;28;20499;-42
2023/07/01 06:01:30;;;;;;;16.60;15.37;;;;;;;16.75;100.00;100207.56;5031301;28;20819;-43
2023/07/01 06:03:58;;;;;;;17.90;16.70;;;;;;;16.58;100.00;100207.56;5031741;28;20928;-42
2023/07/01 06:06:26;;;;;;;18.97;17.67;;;;;;;16.62;100.00;100211.41;5031906;28;20799;-43
2023/07/01 06:08:54;;;;;;;17.97;16.77;;;;;;;16.62;100.00;100207.91;5031308;28;20490;-43
2023/07/01 06:11:21;;;;;;;18.57;17.27;;;;;;;16.62;100.00;100207.91;5031290;28;20497;-45
2023/07/01 06:13:51;;;;;;;17.87;16.70;;;;;;;16.59;100.00;100201.97;5030853;28;20435;-44
2023/07/01 06:16:20;;;;;;;16.80;15.80;;;;;;;16.61;100.00;100204.38;5031841;28;20440;-42
2023/07/01 06:18:47;;;;;;;17.97;16.77;;;;;;;16.61;100.00;100195.53;5031291;28;20463;-42
2023/07/01 06:21:15;;;;;;;17.40;16.30;;;;;;;16.57;100.00;100195.19;5024879;28;20791;-45
2023/07/01 06:23:43;;;;;;;17.77;16.70;;;;;;;16.58;100.00;100184.16;5023249;28;20518;-46
2023/07/01 06:26:11;;;;;;;18.13;17.13;;;;;;;16.52;100.00;100187.00;5031479;28;20432;-45
2023/07/01 06:28:40;;;;;;;17.97;16.53;;;;;;;16.52;100.00;100182.44;5030667;28;20435;-45
2023/07/01 06:31:07;;;;;;;17.93;16.70;;;;;;;16.58;100.00;100188.75;5033357;28;20539;-42
2023/07/01 06:33:38;;;;;;;17.90;16.87;;;;;;;16.60;100.00;100186.63;5035225;28;20494;-44
2023/07/01 06:36:07;;;;;;;18.27;16.93;;;;;;;16.59;100.00;100183.13;5035543;28;20432;-42
2023/07/01 06:38:34;;;;;;;17.73;16.73;;;;;;;16.64;100.00;100186.91;5034773;28;20479;-45
2023/07/01 06:41:02;;;;;;;17.13;16.23;;;;;;;16.54;100.00;100187.63;5034973;28;20538;-45
2023/07/01 06:43:30;;;;;;;17.57;16.37;;;;;;;16.51;100.00;100186.22;5035245;28;20960;-45
2023/07/01 06:45:59;;;;;;;18.20;17.27;;;;;;;16.48;100.00;100178.63;5035405;28;20531;-43
2023/07/01 06:48:27;;;;;;;18.07;17.07;;;;;;;16.42;100.00;100173.44;5034838;28;20428;-43
2023/07/01 06:50:56;;;;;;;18.50;17.37;;;;;;;16.37;100.00;100176.03;5035254;28;20498;-43
2023/07/01 06:53:23;;;;;;;18.90;17.60;;;;;;;16.33;100.00;100164.16;5034834;28;20471;-43
2023/07/01 06:55:51;;;;;;;20.60;19.10;;;;;;;16.36;100.00;100160.97;5035564;28;20432;-42
2023/07/01 06:58:19;;;;;;;20.33;19.00;;;;;;;16.36;100.00;100161.78;5035026;28;20842;-43
2023/07/01 07:00:47;;;;;;;19.07;17.87;;;;;;;16.34;100.00;100155.00;5034416;28;20468;-43
2023/07/01 07:03:15;;;;;;;18.83;17.63;;;;;;;16.37;100.00;100155.31;5034964;28;20465;-44
2023/07/01 07:05:43;;;;;;;19.47;18.37;;;;;;;16.41;100.00;100156.47;5034922;28;20466;-42
2023/07/01 07:08:12;;;;;;;18.60;17.63;;;;;;;16.46;100.00;100153.84;5034632;28;20482;-43
2023/07/01 07:10:40;;;;;;;19.13;17.80;;;;;;;16.51;100.00;100145.84;5034381;28;20881;-43
2023/07/01 07:13:08;;;;;;;19.37;18.00;;;;;;;16.52;100.00;100152.00;5034321;28;20565;-42
2023/07/01 07:15:35;;;;;;;18.00;17.10;;;;;;;16.57;100.00;100149.44;5034710;28;20583;-43
2023/07/01 07:18:06;;;;;;;18.43;17.40;;;;;;;16.66;100.00;100137.19;5035006;28;20468;-45
2023/07/01 07:20:34;;;;;;;19.00;17.70;;;;;;;16.77;100.00;100138.91;5029128;28;20548;-47
2023/07/01 07:23:04;;;;;;;19.60;18.60;;;;;;;16.83;100.00;100132.53;5022638;28;20491;-48
2023/07/01 07:25:33;;;;;;;18.03;17.03;;;;;;;16.86;100.00;100125.81;5014827;28;20437;-49
2023/07/01 07:28:01;;;;;;;18.90;17.90;;;;;;;16.95;100.00;100125.13;5014540;28;20444;-48
2023/07/01 07:30:30;;;;;;;18.20;17.30;;;;;;;16.95;100.00;100132.38;5031464;28;20502;-43
2023/07/01 07:32:57;;;;;;;18.57;17.60;;;;;;;17.02;100.00;100124.94;5034045;28;20432;-46
2023/07/01 07:35:25;;;;;;;17.10;16.30;;;;;;;17.10;100.00;100125.28;5034435;28;20443;-49
2023/07/01 07:37:53;;;;;;;18.50;17.57;;;;;;;17.13;100.00;100122.09;5034095;28;21000;-46
2023/07/01 07:40:21;;;;;;;18.13;17.23;;;;;;;17.15;100.00;100111.84;5033611;28;20463;-50
2023/07/01 07:42:52;;;;;;;17.73;16.93;;;;;;;17.24;100.00;100111.38;5032740;28;20800;-42
2023/07/01 07:45:21;;;;;;;17.57;16.53;;;;;;;17.21;100.00;100112.72;5034032;28;20443;-44
2023/07/01 07:47:49;;;;;;;17.43;16.40;;;;;;;17.12;100.00;100103.47;5034025;28;20451;-43
2023/07/01 07:50:21;;;;;;;17.80;17.00;;;;;;;17.13;100.00;100103.22;5033478;28;20464;-43
2023/07/01 07:52:50;;;;;;;19.17;18.27;;;;;;;17.13;100.00;100097.00;5034020;28;20431;-45
2023/07/01 07:55:18;;;;;;;17.10;16.30;;;;;;;17.05;100.00;100100.97;5034089;28;20466;-43
2023/07/01 07:57:46;;;;;;;17.27;16.43;;;;;;;17.03;100.00;100100.41;5033830;28;20989;-47
2023/07/01 08:00:15;;;;;;;17.93;17.00;;;;;;;16.98;100.00;100105.75;5033167;28;20468;-46
2023/07/01 08:02:44;;;;;;;17.87;16.97;;;;;;;16.94;100.00;100099.25;5033789;28;20489;-47
2023/07/01 08:05:16;;;;;;;17.83;17.03;;;;;;;16.85;100.00;100098.06;5033836;28;20467;-43
2023/07/01 08:07:44;;;;;;;17.90;17.00;;;;;;;16.97;100.00;100096.03;5033962;28;20430;-45
2023/07/01 08:10:12;;;;;;;18.90;17.80;;;;;;;17.06;100.00;100099.09;5033209;28;20472;-45
2023/07/01 08:12:40;;;;;;;18.57;17.63;;;;;;;17.07;100.00;100098.84;5033419;28;20439;-46
2023/07/01 08:15:09;;;;;;;18.73;17.70;;;;;;;17.24;100.00;100095.22;5033812;28;20432;-45
2023/07/01 08:17:39;;;;;;;18.13;17.23;;;;;;;17.30;100.00;100094.19;5033753;28;20482;-45
2023/07/01 08:20:08;;;;;;;18.37;17.37;;;;;;;17.35;100.00;100097.75;5033127;28;21107;-44
2023/07/01 08:22:36;;;;;;;17.77;17.00;;;;;;;17.48;100.00;100088.41;5033151;28;20460;-45
2023/07/01 08:25:04;;;;;;;18.83;17.90;;;;;;;17.55;100.00;100091.75;5033176;28;20432;-45
2023/07/01 08:27:32;;;;;;;18.43;17.53;;;;;;;17.52;100.00;100078.75;5033334;28;20440;-48
2023/07/01 08:30:00;;;;;;;18.80;17.90;;;;;;;17.55;100.00;100083.66;5032861;28;20919;-47
2023/07/01 08:32:28;;;;;;;17.90;17.10;;;;;;;17.53;100.00;100085.78;5033146;28;20435;-46
2023/07/01 08:34:57;;;;;;;17.20;16.40;;;;;;;17.60;100.00;100081.00;5033285;28;20440;-46
2023/07/01 08:37:24;;;;;;;17.90;17.10;;;;;;;17.71;100.00;100074.63;5033204;28;21260;-45
2023/07/01 08:39:52;;;;;;;17.90;17.00;;;;;;;17.82;100.00;100075.50;5032393;28;20554;-47
2023/07/01 08:42:23;;;;;;;17.13;16.33;;;;;;;17.85;100.00;100058.81;5032788;28;20432;-48
2023/07/01 08:44:51;;;;;;;16.83;16.03;;;;;;;17.94;100.00;100066.16;5033286;28;20464;-43
2023/07/01 08:47:20;;;;;;;16.70;16.00;;;;;;;17.94;100.00;100058.06;5033104;28;20481;-46
2023/07/01 08:49:54;;;;;;;16.80;16.00;;;;;;;18.03;100.00;100061.06;5032735;28;20539;-47
2023/07/01 08:52:30;;;;;;;16.43;15.63;;;;;;;18.08;100.00;100061.09;5032576;28;20496;-44
2023/07/01 08:54:57;;;;;;;17.00;16.30;;;;;;;18.14;100.00;100055.47;5032484;28;20864;-47
2023/07/01 08:57:25;;;;;;;16.93;16.27;;;;;;;18.13;100.00;100055.69;5032657;28;20432;-46
2023/07/01 08:59:53;;;;;;;15.33;14.73;;;;;;;17.97;100.00;100054.84;5032109;28;20466;-43
2023/07/01 09:02:24;;;;;;;14.90;14.30;;;;;;;18.02;100.00;100052.16;5032442;28;21020;-45
2023/07/01 09:04:52;;;;;;;16.37;15.77;;;;;;;17.98;100.00;100050.25;5032500;28;20481;-45
2023/07/01 09:07:20;;;;;;;15.80;15.10;;;;;;;17.97;100.00;100054.03;5032835;28;20440;-44
2023/07/01 09:09:49;;;;;;;16.53;15.73;;;;;;;17.91;100.00;100055.88;5032073;28;20471;-47
2023/07/01 09:12:16;;;;;;;16.90;16.20;;;;;;;18.02;100.00;100054.84;5032302;28;20424;-45
2023/07/01 09:14:57;;;;;;;16.13;15.33;;;;;;;18.12;100.00;100054.09;5032502;28;20442;-43
2023/07/01 09:17:29;;;;;;;16.10;15.20;;;;;;;18.22;100.00;100056.81;5032242;28;20466;-46
2023/07/01 09:20:00;;;;;;;16.57;15.87;;;;;;;18.29;100.00;100051.19;5031807;28;20476;-46
2023/07/01 09:22:29;;;;;;;16.47;15.87;;;;;;;18.29;100.00;100045.78;5026320;28;20509;-45
2023/07/01 09:24:58;;;;;;;16.03;15.37;;;;;;;18.21;100.00;100044.44;5032134;28;20542;-44
2023/07/01 09:27:39;;;;;;;17.03;16.20;;;;;;;18.30;100.00;100042.84;5032112;28;20444;-44
2023/07/01 09:30:23;;;;;;;16.50;15.80;;;;;;;18.56;100.00;100046.47;5031625;28;20475;-44
2023/07/01 09:32:51;;;;;;;16.63;16.03;;;;;;;18.70;100.00;100043.00;5032219;28;20432;-49
2023/07/01 09:35:20;;;;;;;16.60;15.97;;;;;;;18.78;100.00;100033.56;5032080;28;20518;-48
2023/07/01 09:38:02;;;;;;;16.70;16.10;;;;;;;18.84;100.00;100029.81;5032218;28;20438;-45
2023/07/01 09:40:32;;;;;;;17.30;16.70;;;;;;;18.86;100.00;100027.63;5031441;28;20740;-46
2023/07/01 09:42:59;;;;;;;16.07;15.47;;;;;;;18.77;100.00;100023.84;5031798;28;20428;-50
2023/07/01 09:45:27;;;;;;;18.00;17.20;;;;;;;18.68;100.00;100026.25;5031925;28;20980;-48
2023/07/01 09:47:56;;;;;;;17.33;16.53;;;;;;;18.62;100.00;100021.09;5031869;28;20432;-47
2023/07/01 09:50:26;;;;;;;17.00;16.40;;;;;;;18.63;100.00;100028.13;5031178;28;20467;-44
2023/07/01 09:52:55;;;;;;;16.90;16.20;;;;;;;18.65;100.00;100029.50;5031793;28;20431;-45
2023/07/01 09:55:23;;;;;;;17.63;16.93;;;;;;;18.73;100.00;100031.66;5031779;28;20442;-45
2023/07/01 09:57:53;;;;;;;17.50;16.80;;;;;;;18.86;100.00;100032.22;5031851;28;20462;-43
2023/07/01 10:00:25;;;;;;;17.70;17.00;;;;;;;18.97;100.00;100023.88;5031320;28;20853;-46
2023/07/01 10:02:54;;;;;;;17.33;16.63;;;;;;;18.99;100.00;100020.91;5031570;28;20446;-44
2023/07/01 10:05:22;;;;;;;17.47;16.50;;;;;;;18.93;100.00;100025.50;5030916;28;20492;-43
2023/07/01 10:07:50;;;;;;;18.73;17.87;;;;;;;18.89;100.00;100024.41;5031809;28;20440;-43
2023/07/01 10:10:21;;;;;;;16.80;16.20;;;;;;;18.79;100.00;100019.78;5031299;28;20487;-43
2023/07/01 10:12:52;;;;;;;18.27;17.37;;;;;;;18.84;100.00;100026.28;5031619;28;20424;-45
2023/07/01 10:15:25;;;;;;;18.17;17.37;;;;;;;18.89;100.00;100015.47;5031639;28;20440;-43
2023/07/01 10:17:56;;;;;;;17.37;16.67;;;;;;;18.93;100.00;100013.88;5031504;28;20432;-43
2023/07/01 10:20:30;;;;;;;17.80;16.80;;;;;;;18.98;100.00;100017.38;5030961;28;20529;-43
2023/07/01 10:22:58;;;;;;;18.23;17.43;;;;;;;19.05;100.00;100009.84;5031251;28;20416;-47
2023/07/01 10:25:31;;;;;;;18.10;17.40;;;;;;;19.06;100.00;100005.22;5031449;28;20440;-45
2023/07/01 10:28:09;;;;;;;18.07;17.23;;;;;;;19.04;100.00;100002.81;5031342;28;20439;-46
2023/07/01 10:31:14;;;;;;;18.37;17.57;;;;;;;19.00;100.00;100004.41;5031077;28;20452;-45
2023/07/01 10:33:55;;;;;;;17.03;16.23;;;;;;;19.05;100.00;100003.63;5031677;28;20504;-45
2023/07/01 10:36:23;;;;;;;17.70;17.00;;;;;;;19.04;100.00;99999.28;5031450;28;20993;-43
2023/07/01 10:38:51;;;;;;;16.60;15.90;;;;;;;19.05;100.00;99993.63;5031212;28;20813;-46
2023/07/01 10:41:51;;;;;;;17.13;16.43;;;;;;;19.03;100.00;99995.75;5031349;28;20460;-47
2023/07/01 10:44:24;;;;;;;17.17;16.47;;;;;;;19.11;100.00;99992.53;5031567;28;20485;-43
2023/07/01 10:47:16;;;;;;;18.07;17.30;;;;;;;19.29;100.00;99983.06;5031280;28;20432;-44
2023/07/01 10:50:00;;;;;;;17.43;16.73;;;;;;;19.27;100.00;99982.50;5031025;28;20460;-48
2023/07/01 10:52:28;;;;;;;19.40;18.53;;;;;;;19.35;100.00;99984.69;5031111;28;20548;-42
2023/07/01 10:54:56;;;;;;;17.67;16.97;;;;;;;19.49;100.00;99985.78;5031304;28;20928;-45
2023/07/01 10:57:24;;;;;;;17.90;17.10;;;;;;;19.73;100.00;99986.81;5031081;28;20428;-46
2023/07/01 10:59:52;;;;;;;19.30;18.50;;;;;;;19.95;100.00;99977.53;5030853;28;21017;-45
2023/07/01 11:02:41;;;;;;;18.83;18.03;;;;;;;20.02;100.00;99973.44;5030817;28;20945;-44
2023/07/01 11:05:10;;;;;;;17.97;17.27;;;;;;;20.13;100.00;99975.00;5031236;28;20442;-47
2023/07/01 11:07:41;;;;;;;18.40;17.70;;;;;;;20.03;100.00;99972.38;5031003;28;20439;-47
2023/07/01 11:10:10;;;;;;;18.40;17.70;;;;;;;20.06;100.00;99973.69;5030747;28;20877;-47
2023/07/01 11:12:38;;;;;;;19.10;18.30;;;;;;;20.20;100.00;99969.31;5031056;28;20428;-46
2023/07/01 11:15:07;;;;;;;20.30;19.40;;;;;;;20.20;100.00;99967.41;5031170;28;20514;-47
2023/07/01 11:17:34;;;;;;;18.30;17.50;;;;;;;20.35;100.00;99975.47;5033330;28;20599;-46